QTR3M OTHH-OMDB
Flight info
| Callsign | QTR3M |
|---|---|
| Flight time | N/A |
| Altitude | 21000 |
| Route | ALSEM L305 ITBUL M677 VUTEB |
| Aircraft | B77W/H-SDE1E2E3FGHIJ2J3J4J5M1RWXY/LB1D1 |
Departure
| Time | 2026-05-06 12:09 |
|---|---|
| Airport | Hamad International Airport (OTHH) |
Arrival
| Time | N/A |
|---|---|
| Airport | Dubai International Airport (OMDB) |
| Time | Latitude | Longitude | Altitude | Speed | Heading |
|---|---|---|---|---|---|
| 2026-05-06 11:47 | 25.26696 | 51.61749 | 34 ft | 0 kts | 248° |
| 2026-05-06 11:59 | 25.26702 | 51.61765 | 34 ft | 4 kts | 248° |
| 2026-05-06 12:00 | 25.26712 | 51.61792 | 34 ft | 4 kts | 248° |
| 2026-05-06 12:00 | 25.26720 | 51.61815 | 32 ft | 4 kts | 245° |
| 2026-05-06 12:00 | 25.26734 | 51.61836 | 32 ft | 4 kts | 195° |
| 2026-05-06 12:00 | 25.26758 | 51.61834 | 30 ft | 3 kts | 158° |
| 2026-05-06 12:01 | 25.26783 | 51.61823 | 31 ft | 4 kts | 158° |
| 2026-05-06 12:01 | 25.26790 | 51.61820 | 32 ft | 0 kts | 158° |
| 2026-05-06 12:04 | 25.26772 | 51.61828 | 31 ft | 8 kts | 158° |
| 2026-05-06 12:04 | 25.26719 | 51.61851 | 32 ft | 9 kts | 158° |
| 2026-05-06 12:05 | 25.26652 | 51.61881 | 34 ft | 11 kts | 158° |
| 2026-05-06 12:05 | 25.26583 | 51.61917 | 34 ft | 11 kts | 137° |
| 2026-05-06 12:05 | 25.26562 | 51.62001 | 33 ft | 12 kts | 112° |
| 2026-05-06 12:05 | 25.26497 | 51.62055 | 33 ft | 12 kts | 156° |
| 2026-05-06 12:06 | 25.26382 | 51.62106 | 34 ft | 25 kts | 158° |
| 2026-05-06 12:06 | 25.26219 | 51.62178 | 34 ft | 23 kts | 158° |
| 2026-05-06 12:06 | 25.26074 | 51.62242 | 35 ft | 23 kts | 158° |
| 2026-05-06 12:06 | 25.25928 | 51.62306 | 34 ft | 23 kts | 158° |
| 2026-05-06 12:07 | 25.25781 | 51.62370 | 34 ft | 22 kts | 158° |
| 2026-05-06 12:07 | 25.25673 | 51.62418 | 33 ft | 14 kts | 158° |
| 2026-05-06 12:07 | 25.25617 | 51.62468 | 33 ft | 10 kts | 103° |
| 2026-05-06 12:07 | 25.25642 | 51.62546 | 31 ft | 12 kts | 52° |
| 2026-05-06 12:08 | 25.25711 | 51.62591 | 31 ft | 12 kts | 7° |
| 2026-05-06 12:08 | 25.25840 | 51.62548 | 31 ft | 34 kts | 338° |
| 2026-05-06 12:08 | 25.26275 | 51.62359 | 33 ft | 108 kts | 339° |
| 2026-05-06 12:08 | 25.27213 | 51.61952 | 34 ft | 177 kts | 336° |
| 2026-05-06 12:09 | 25.28399 | 51.61416 | 674 ft | 180 kts | 340° |
| 2026-05-06 12:09 | 25.29544 | 51.60905 | 1630 ft | 175 kts | 340° |
| 2026-05-06 12:09 | 25.30708 | 51.60389 | 2251 ft | 191 kts | 340° |